Time;durP1;ratioP1;P1;durP2;ratioP2;P2;SDS_P1;SDS_P2;PMS_P1;PMS_P2;Temp;Humidity;BMP_temperature;BMP_pressure;BME280_temperature;BME280_humidity;BME280_pressure;Samples;Min_cycle;Max_cycle;Signal;HPM_P1;HPM_P2
2023/05/31 00:01:42;;;;;;;;;;;;;;;7.57;86.15;102692.78;4925721;29;19954;-88
2023/05/31 00:04:08;;;;;;;;;;;;;;;7.54;85.72;102688.69;4914523;29;19927;-89
2023/05/31 00:06:35;;;;;;;;;;;;;;;7.47;86.09;102693.19;4932091;29;19922;-89
2023/05/31 00:09:00;;;;;;;;;;;;;;;7.42;86.79;102710.78;4907034;29;20385;-89
2023/05/31 00:11:26;;;;;;;;;;;;;;;7.44;87.48;102708.75;4946037;29;19942;-88
2023/05/31 00:13:52;;;;;;;;;;;;;;;7.35;87.33;102706.25;4924878;29;19929;-89
2023/05/31 00:16:18;;;;;;;;;;;;;;;7.38;87.43;102700.56;4923790;29;19919;-89
2023/05/31 00:18:44;;;;;;;;;;;;;;;7.32;87.36;102701.34;4921948;29;20002;-88
2023/05/31 00:21:09;;;;;;;;;;;;;;;7.31;87.93;102704.19;4903367;29;19965;-88
2023/05/31 00:23:35;;;;;;;;;;;;;;;7.23;88.00;102702.53;4942445;29;19923;-87
2023/05/31 00:26:01;;;;;;;;;;;;;;;7.26;87.73;102691.47;4938881;29;19919;-89
2023/05/31 00:28:26;;;;;;;;;;;;;;;7.32;87.60;102705.84;4907500;29;19919;-88
2023/05/31 00:30:52;;;;;;;;;;;;;;;7.30;88.05;102707.88;4921180;29;19929;-88
2023/05/31 00:33:18;;;;;;;;;;;;;;;7.30;88.22;102703.38;4912540;29;19962;-88
2023/05/31 00:35:44;;;;;;;;;;;;;;;7.27;88.16;102703.78;4913818;29;19973;-87
2023/05/31 00:38:09;;;;;;;;;;;;;;;7.34;88.11;102699.28;4895899;29;19947;-88
2023/05/31 00:40:35;;;;;;;;;;;;;;;7.32;87.93;102712.00;4910888;29;19919;-86
2023/05/31 00:43:01;;;;;;;;;;;;;;;7.27;87.86;102706.44;4928930;29;19998;-87
2023/05/31 00:45:28;;;;;;;;;;;;;;;7.24;88.45;102698.84;4925074;29;19955;-88
2023/05/31 00:47:54;;;;;;;;;;;;;;;7.21;88.44;102719.75;4918861;29;20011;-87
2023/05/31 00:50:20;;;;;;;;;;;;;;;7.16;88.70;102712.34;4911508;29;19972;-89
2023/05/31 00:52:46;;;;;;;;;;;;;;;7.11;88.75;102710.28;4938065;29;19982;-88
2023/05/31 00:55:12;;;;;;;;;;;;;;;7.06;88.88;102710.06;4914728;29;19933;-88
2023/05/31 00:57:38;;;;;;;;;;;;;;;7.07;89.09;102710.88;4902513;29;19935;-88
2023/05/31 01:00:07;;;;;;;;;;;;;;;7.16;88.88;102712.34;4927666;29;21279;-88
2023/05/31 01:02:34;;;;;;;;;;;;;;;7.13;89.07;102714.59;4908406;29;20060;-88
2023/05/31 01:05:01;;;;;;;;;;;;;;;7.08;89.30;102720.50;4936388;29;19953;-88
2023/05/31 01:07:26;;;;;;;;;;;;;;;7.04;89.33;102703.25;4908919;29;19974;-88
2023/05/31 01:09:53;;;;;;;;;;;;;;;7.03;89.05;102701.63;4937297;29;19944;-86
2023/05/31 01:12:48;;;;;;;;;;;;;;;6.97;89.21;102702.41;4933630;29;19949;-86
2023/05/31 01:15:18;;;;;;;;;;;;;;;6.96;89.31;102706.91;4886973;29;20011;-88
2023/05/31 01:18:09;;;;;;;;;;;;;;;6.92;89.58;102705.69;4927557;29;19985;-87
2023/05/31 01:20:35;;;;;;;;;;;;;;;6.93;89.82;102706.50;4913600;29;19949;-88
2023/05/31 01:23:16;;;;;;;;;;;;;;;6.90;89.89;102701.56;4929531;29;20005;-87
2023/05/31 01:25:53;;;;;;;;;;;;;;;6.94;90.03;102708.97;4893789;29;19938;-88
2023/05/31 01:28:19;;;;;;;;;;;;;;;6.88;89.79;102700.94;4934176;29;19933;-87
2023/05/31 01:30:48;;;;;;;;;;;;;;;6.87;90.02;102713.44;4918150;29;20428;-88
2023/05/31 01:33:17;;;;;;;;;;;;;;;6.87;90.22;102707.28;4893580;29;19980;-86
2023/05/31 01:35:42;;;;;;;;;;;;;;;6.88;89.99;102714.25;4931728;29;19931;-87
2023/05/31 01:38:08;;;;;;;;;;;;;;;6.83;90.51;102720.97;4917646;29;19972;-87
2023/05/31 01:40:35;;;;;;;;;;;;;;;6.86;90.37;102710.97;4930079;29;20014;-87
2023/05/31 01:43:01;;;;;;;;;;;;;;;6.82;90.77;102716.69;4910986;29;19926;-86
2023/05/31 01:45:27;;;;;;;;;;;;;;;6.73;90.58;102712.53;4930500;29;20011;-86
2023/05/31 01:47:59;;;;;;;;;;;;;;;6.80;90.94;102713.41;4912151;29;19954;-86
2023/05/31 01:50:25;;;;;;;;;;;;;;;6.80;90.69;102707.25;4916232;29;19927;-85
2023/05/31 01:52:51;;;;;;;;;;;;;;;6.79;90.35;102716.25;4931302;29;19922;-86
2023/05/31 01:55:16;;;;;;;;;;;;;;;6.80;90.52;102712.56;4910373;29;19935;-87
2023/05/31 01:57:42;;;;;;;;;;;;;;;6.72;90.56;102710.91;4904311;29;19974;-86
2023/05/31 02:00:11;;;;;;;;;;;;;;;6.75;90.76;102715.81;4921293;29;20259;-86
2023/05/31 02:02:40;;;;;;;;;;;;;;;6.64;90.57;102708.41;4922553;29;19923;-86
2023/05/31 02:05:08;;;;;;;;;;;;;;;6.64;90.71;102707.53;4925914;28;20306;-86
2023/05/31 02:07:36;;;;;;;;;;;;;;;6.63;90.19;102711.22;4930099;29;19926;-84
2023/05/31 02:10:05;;;;;;;;;;;;;;;6.66;90.82;102711.69;4935353;29;19922;-87
2023/05/31 02:12:35;;;;;;;;;;;;;;;6.55;91.12;102709.53;4908661;29;19949;-87
2023/05/31 02:15:00;;;;;;;;;;;;;;;6.53;90.94;102711.59;4935534;29;19922;-86
2023/05/31 02:17:28;;;;;;;;;;;;;;;6.51;91.22;102705.66;4897070;29;20457;-89
2023/05/31 02:19:55;;;;;;;;;;;;;;;6.52;91.58;102705.44;4923332;29;19970;-86
2023/05/31 02:22:21;;;;;;;;;;;;;;;6.47;91.49;102702.53;4919567;29;20279;-86
2023/05/31 02:24:46;;;;;;;;;;;;;;;6.51;91.57;102711.78;4934712;29;19923;-86
2023/05/31 02:27:13;;;;;;;;;;;;;;;6.48;91.51;102708.69;4938490;29;20029;-88
2023/05/31 02:29:38;;;;;;;;;;;;;;;6.47;91.42;102710.53;4909933;29;20418;-86
2023/05/31 02:32:04;;;;;;;;;;;;;;;6.47;91.81;102701.72;4930366;29;20001;-86
2023/05/31 02:34:30;;;;;;;;;;;;;;;6.44;91.54;102700.28;4920981;29;19982;-86
2023/05/31 02:36:56;;;;;;;;;;;;;;;6.45;91.63;102707.25;4916375;29;20005;-86
2023/05/31 02:39:21;;;;;;;;;;;;;;;6.40;91.56;102701.66;4896556;29;21029;-89
2023/05/31 02:41:47;;;;;;;;;;;;;;;6.37;91.88;102703.88;4900749;29;19970;-86
2023/05/31 02:44:13;;;;;;;;;;;;;;;6.29;92.08;102699.53;4935313;29;20409;-84
2023/05/31 02:46:39;;;;;;;;;;;;;;;6.27;92.15;102706.88;4922404;29;19918;-86
2023/05/31 02:49:06;;;;;;;;;;;;;;;6.24;92.79;102705.44;4901767;29;20028;-86
2023/05/31 02:51:32;;;;;;;;;;;;;;;6.25;92.50;102704.44;4920234;29;20001;-85
2023/05/31 02:54:12;;;;;;;;;;;;;;;6.23;92.45;102702.94;4909344;29;19922;-85
2023/05/31 02:56:38;;;;;;;;;;;;;;;6.28;92.33;102696.03;4925487;29;19952;-85
2023/05/31 02:59:07;;;;;;;;;;;;;;;6.22;92.70;102699.47;4932772;29;19926;-86
2023/05/31 03:01:41;;;;;;;;;;;;;;;6.23;92.29;102700.28;4915802;29;19925;-87
2023/05/31 03:04:22;;;;;;;;;;;;;;;6.26;92.36;102695.41;4913495;29;19927;-88
2023/05/31 03:06:49;;;;;;;;;;;;;;;6.24;92.63;102696.66;4924627;29;20374;-86
2023/05/31 03:09:16;;;;;;;;;;;;;;;6.22;92.33;102696.81;4920507;29;20017;-86
2023/05/31 03:11:43;;;;;;;;;;;;;;;6.20;92.79;102696.19;4942079;29;19926;-87
2023/05/31 03:14:09;;;;;;;;;;;;;;;6.17;92.48;102685.94;4940264;29;21530;-85
2023/05/31 03:16:53;;;;;;;;;;;;;;;6.14;92.40;102688.16;4929033;29;19918;-85
2023/05/31 03:19:19;;;;;;;;;;;;;;;6.13;92.48;102689.19;4905892;29;20011;-86
2023/05/31 03:21:48;;;;;;;;;;;;;;;6.17;92.80;102691.28;4937988;29;19918;-86
2023/05/31 03:24:14;;;;;;;;;;;;;;;6.18;92.74;102690.25;4916288;29;19927;-84
2023/05/31 03:26:40;;;;;;;;;;;;;;;6.15;92.64;102687.13;4933994;29;19995;-86
2023/05/31 03:29:06;;;;;;;;;;;;;;;6.18;92.56;102687.59;4912066;29;19919;-85
2023/05/31 03:31:33;;;;;;;;;;;;;;;6.20;92.31;102690.88;4920778;29;19978;-85
2023/05/31 03:33:59;;;;;;;;;;;;;;;6.20;92.75;102684.72;4915726;29;20481;-84
2023/05/31 03:36:25;;;;;;;;;;;;;;;6.25;93.08;102688.47;4907668;29;19973;-84
2023/05/31 03:38:51;;;;;;;;;;;;;;;6.24;92.76;102688.66;4939822;29;20041;-85
2023/05/31 03:41:17;;;;;;;;;;;;;;;6.24;92.90;102684.16;4938746;29;19984;-85
2023/05/31 03:43:42;;;;;;;;;;;;;;;6.27;93.50;102683.75;4909961;29;19922;-85
2023/05/31 03:46:08;;;;;;;;;;;;;;;6.24;93.48;102684.16;4903554;29;20392;-86
2023/05/31 03:48:35;;;;;;;;;;;;;;;6.33;93.61;102689.34;4924958;29;20361;-87
2023/05/31 03:51:00;;;;;;;;;;;;;;;6.36;93.90;102678.28;4921007;29;19926;-88
2023/05/31 03:53:27;;;;;;;;;;;;;;;6.38;93.86;102684.25;4923923;29;19927;-87
2023/05/31 03:55:53;;;;;;;;;;;;;;;6.39;93.57;102683.25;4906607;29;19919;-86
2023/05/31 03:58:20;;;;;;;;;;;;;;;6.41;93.74;102681.19;4936914;29;19919;-87
2023/05/31 04:00:48;;;;;;;;;;;;;;;6.47;94.31;102683.09;4886317;29;19923;-86
2023/05/31 04:03:14;;;;;;;;;;;;;;;6.50;94.28;102685.34;4918566;29;19919;-86
2023/05/31 04:05:40;;;;;;;;;;;;;;;6.55;94.48;102688.25;4925294;29;20233;-86
2023/05/31 04:08:06;;;;;;;;;;;;;;;6.63;94.30;102689.94;4902063;29;20433;-87
2023/05/31 04:10:33;;;;;;;;;;;;;;;6.77;94.40;102687.19;4919327;28;19923;-87
2023/05/31 04:12:59;;;;;;;;;;;;;;;6.83;94.53;102686.34;4918477;29;19934;-87
2023/05/31 04:15:25;;;;;;;;;;;;;;;6.90;94.15;102688.22;4920261;29;19929;-87
2023/05/31 04:17:53;;;;;;;;;;;;;;;6.96;93.91;102672.28;4927384;29;19949;-87
2023/05/31 04:20:20;;;;;;;;;;;;;;;7.07;93.67;102684.22;4922241;28;19961;-86
2023/05/31 04:22:48;;;;;;;;;;;;;;;7.19;93.85;102687.97;4906348;29;20006;-86
2023/05/31 04:25:17;;;;;;;;;;;;;;;7.29;94.02;102683.06;4900274;29;19966;-87
2023/05/31 04:27:43;;;;;;;;;;;;;;;7.45;94.58;102694.38;4918976;29;19919;-86
2023/05/31 04:30:09;;;;;;;;;;;;;;;7.53;94.56;102691.56;4921400;29;20010;-86
2023/05/31 04:32:35;;;;;;;;;;;;;;;7.59;94.53;102685.44;4922956;29;20369;-87
2023/05/31 04:35:03;;;;;;;;;;;;;;;7.64;94.40;102682.94;4907454;29;19930;-87
2023/05/31 04:37:32;;;;;;;;;;;;;;;7.76;94.14;102683.19;4937221;29;19919;-86
2023/05/31 04:40:00;;;;;;;;;;;;;;;7.93;94.21;102687.13;4930570;29;19918;-86
2023/05/31 04:42:26;;;;;;;;;;;;;;;8.05;94.56;102679.28;4901490;29;19954;-86
2023/05/31 04:44:57;;;;;;;;;;;;;;;8.16;94.46;102687.50;4913409;29;20331;-87
2023/05/31 04:47:24;;;;;;;;;;;;;;;8.29;94.22;102684.03;4910836;29;20344;-87
2023/05/31 04:49:49;;;;;;;;;;;;;;;8.41;94.26;102685.06;4934614;29;20274;-86
2023/05/31 04:52:16;;;;;;;;;;;;;;;8.51;94.11;102683.81;4925265;29;19929;-86
2023/05/31 04:54:42;;;;;;;;;;;;;;;8.59;93.91;102694.28;4903715;29;20371;-85
2023/05/31 04:57:07;;;;;;;;;;;;;;;8.69;93.38;102697.34;4939391;29;19943;-88
2023/05/31 04:59:33;;;;;;;;;;;;;;;8.78;93.01;102693.41;4926052;29;19930;-86
2023/05/31 05:01:59;;;;;;;;;;;;;;;8.86;93.19;102698.50;4918089;29;19919;-87
2023/05/31 05:04:25;;;;;;;;;;;;;;;8.92;93.13;102692.34;4908515;29;19926;-85
2023/05/31 05:06:50;;;;;;;;;;;;;;;8.99;93.05;102693.13;4907938;29;20430;-87
2023/05/31 05:09:17;;;;;;;;;;;;;;;9.16;91.46;102696.16;4907649;29;19919;-87
2023/05/31 05:11:42;;;;;;;;;;;;;;;9.25;92.13;102686.84;4905127;29;19926;-88
2023/05/31 05:14:08;;;;;;;;;;;;;;;9.35;91.53;102697.09;4913000;29;19919;-86
2023/05/31 05:16:34;;;;;;;;;;;;;;;9.41;91.42;102693.56;4941027;29;19974;-86
2023/05/31 05:19:01;;;;;;;;;;;;;;;9.52;90.82;102690.22;4931802;29;19929;-86
2023/05/31 05:21:30;;;;;;;;;;;;;;;9.71;89.27;102685.78;4934997;29;19929;-86
2023/05/31 05:23:56;;;;;;;;;;;;;;;9.90;88.71;102692.03;4924063;29;20010;-85
2023/05/31 05:26:22;;;;;;;;;;;;;;;10.05;89.00;102681.81;4930887;29;19922;-87
2023/05/31 05:28:51;;;;;;;;;;;;;;;10.25;87.30;102689.72;4925612;29;20013;-86
2023/05/31 05:31:17;;;;;;;;;;;;;;;10.52;85.81;102687.59;4915061;29;20304;-86
2023/05/31 05:33:45;;;;;;;;;;;;;;;10.65;85.96;102692.81;4907271;29;19937;-86
2023/05/31 05:36:12;;;;;;;;;;;;;;;10.93;83.86;102694.16;4927501;29;19956;-85
2023/05/31 05:38:43;;;;;;;;;;;;;;;11.09;83.56;102693.53;4913424;29;19933;-85
2023/05/31 05:41:12;;;;;;;;;;;;;;;11.24;84.58;102701.19;4916713;29;20057;-86
2023/05/31 05:43:39;;;;;;;;;;;;;;;11.45;81.79;102689.16;4935405;29;19955;-84
2023/05/31 05:46:10;;;;;;;;;;;;;;;11.71;80.37;102686.06;4925671;29;19988;-86
2023/05/31 05:48:36;;;;;;;;;;;;;;;12.02;78.29;102684.19;4904787;29;19935;-87
2023/05/31 05:51:02;;;;;;;;;;;;;;;12.34;77.85;102689.25;4915812;29;20040;-85
2023/05/31 05:53:28;;;;;;;;;;;;;;;12.58;77.00;102680.91;4914588;29;19933;-85
2023/05/31 05:55:54;;;;;;;;;;;;;;;12.57;76.82;102683.84;4926317;29;19933;-85
2023/05/31 05:58:25;;;;;;;;;;;;;;;12.61;77.37;102681.53;4926315;29;19936;-87
2023/05/31 06:01:03;;;;;;;;;;;;;;;12.70;77.20;102686.28;4935162;29;19960;-88
2023/05/31 06:03:30;;;;;;;;;;;;;;;12.99;75.43;102675.56;4913100;29;19959;-86
2023/05/31 06:05:58;;;;;;;;;;;;;;;13.14;74.48;102678.59;4913988;29;19931;-88
2023/05/31 06:08:24;;;;;;;;;;;;;;;13.34;74.46;102684.38;4931915;29;20302;-90
2023/05/31 06:10:49;;;;;;;;;;;;;;;13.46;73.23;102676.22;4919509;29;20055;-86
2023/05/31 06:13:15;;;;;;;;;;;;;;;13.69;73.17;102669.09;4951086;29;19940;-89
2023/05/31 06:15:41;;;;;;;;;;;;;;;13.86;71.85;102676.13;4917900;29;20014;-85
2023/05/31 06:18:08;;;;;;;;;;;;;;;13.96;71.51;102672.78;4937252;29;19954;-88
2023/05/31 06:20:34;;;;;;;;;;;;;;;14.18;70.85;102667.47;4929055;29;20029;-85
2023/05/31 06:23:00;;;;;;;;;;;;;;;14.34;69.86;102663.91;4918655;29;20005;-87
2023/05/31 06:25:26;;;;;;;;;;;;;;;14.50;70.75;102658.78;4922830;29;19969;-88
2023/05/31 06:27:52;;;;;;;;;;;;;;;14.58;69.48;102651.06;4911496;29;19966;-87
2023/05/31 06:30:21;;;;;;;;;;;;;;;14.75;68.85;102656.41;4923708;29;19919;-88
2023/05/31 06:32:49;;;;;;;;;;;;;;;14.92;67.99;102656.34;4922011;29;19943;-86
2023/05/31 06:35:22;;;;;;;;;;;;;;;15.01;66.89;102655.63;4913340;29;19918;-87
2023/05/31 06:37:48;;;;;;;;;;;;;;;15.21;65.34;102652.34;4933267;29;20009;-88
2023/05/31 06:40:14;;;;;;;;;;;;;;;15.23;66.58;102657.47;4917935;29;19959;-87
2023/05/31 06:42:41;;;;;;;;;;;;;;;15.36;65.59;102657.06;4925305;29;19960;-86
2023/05/31 06:45:30;;;;;;;;;;;;;;;15.48;64.68;102638.84;4915752;29;19957;-85
2023/05/31 06:48:04;;;;;;;;;;;;;;;15.59;64.81;102641.66;4921992;29;20351;-85
2023/05/31 06:50:48;;;;;;;;;;;;;;;15.46;63.26;102638.28;4931430;28;19965;-86
2023/05/31 06:53:46;;;;;;;;;;;;;;;15.65;62.97;102644.16;4942167;29;20400;-85
2023/05/31 06:56:17;;;;;;;;;;;;;;;15.64;63.33;102637.09;4926344;29;19936;-88
2023/05/31 06:58:45;;;;;;;;;;;;;;;15.74;61.95;102631.81;4903513;29;19936;-88
2023/05/31 07:01:11;;;;;;;;;;;;;;;16.09;61.94;102638.53;4929739;29;19955;-86
2023/05/31 07:03:36;;;;;;;;;;;;;;;15.97;61.73;102637.91;4922328;29;19956;-87
2023/05/31 07:06:03;;;;;;;;;;;;;;;16.01;64.13;102623.63;4940367;29;20015;-87
2023/05/31 07:08:29;;;;;;;;;;;;;;;16.26;61.96;102625.69;4931368;29;19979;-88
2023/05/31 07:11:14;;;;;;;;;;;;;;;16.30;62.27;102628.66;4908440;29;20003;-86
2023/05/31 07:13:39;;;;;;;;;;;;;;;16.49;62.65;102632.53;4935421;29;19943;-89
2023/05/31 07:16:05;;;;;;;;;;;;;;;16.64;61.60;102629.09;4906109;29;20062;-88
2023/05/31 07:18:31;;;;;;;;;;;;;;;16.89;59.68;102636.53;4917699;29;19973;-89
2023/05/31 07:20:58;;;;;;;;;;;;;;;17.08;58.09;102634.94;4932535;29;19953;-86
2023/05/31 07:23:25;;;;;;;;;;;;;;;16.85;61.00;102633.50;4911651;29;19989;-90
2023/05/31 07:25:51;;;;;;;;;;;;;;;17.03;60.60;102634.13;4905869;29;19949;-87
2023/05/31 07:28:16;;;;;;;;;;;;;;;17.38;59.25;102636.06;4905175;29;19919;-86
2023/05/31 07:30:42;;;;;;;;;;;;;;;17.59;59.83;102634.19;4939523;29;19918;-88
2023/05/31 07:33:07;;;;;;;;;;;;;;;17.99;56.40;102619.81;4932603;29;19925;-88
2023/05/31 07:35:33;;;;;;;;;;;;;;;17.96;56.67;102620.38;4940737;29;20013;-86
2023/05/31 07:37:59;;;;;;;;;;;;;;;18.35;56.37;102623.25;4922841;29;19919;-88
2023/05/31 07:40:24;;;;;;;;;;;;;;;18.27;57.54;102618.41;4930077;28;19926;-88
2023/05/31 07:42:50;;;;;;;;;;;;;;;18.36;57.45;102618.66;4940713;29;20317;-88
2023/05/31 07:45:16;;;;;;;;;;;;;;;18.59;54.96;102620.72;4940260;29;19930;-88
2023/05/31 07:47:42;;;;;;;;;;;;;;;18.28;54.71;102615.41;4910347;29;19957;-88
2023/05/31 07:50:07;;;;;;;;;;;;;;;18.57;52.25;102617.50;4916433;29;19940;-88
2023/05/31 07:52:33;;;;;;;;;;;;;;;18.52;52.45;102609.38;4938439;29;19971;-87
2023/05/31 07:54:58;;;;;;;;;;;;;;;18.62;52.55;102613.91;4940262;29;19938;-88
2023/05/31 07:57:24;;;;;;;;;;;;;;;18.55;53.18;102614.22;4919176;29;19939;-89
2023/05/31 07:59:52;;;;;;;;;;;;;;;18.54;53.81;102615.31;4932771;29;20022;-87
2023/05/31 08:02:18;;;;;;;;;;;;;;;18.38;54.03;102611.06;4906742;29;20335;-87
2023/05/31 08:04:43;;;;;;;;;;;;;;;18.44;54.81;102615.38;4922104;29;19966;-88
2023/05/31 08:07:09;;;;;;;;;;;;;;;18.70;52.71;102614.19;4920205;29;19952;-88
2023/05/31 08:09:35;;;;;;;;;;;;;;;18.68;49.75;102620.97;4917047;29;19939;-90
2023/05/31 08:12:02;;;;;;;;;;;;;;;18.70;50.28;102611.50;4907879;29;19984;-87
2023/05/31 08:14:28;;;;;;;;;;;;;;;18.91;50.10;102609.47;4934190;29;19936;-87
2023/05/31 08:16:54;;;;;;;;;;;;;;;19.23;50.50;102619.84;4928619;29;19936;-87
2023/05/31 08:19:21;;;;;;;;;;;;;;;19.12;49.60;102604.72;4924717;29;19935;-88
2023/05/31 08:21:46;;;;;;;;;;;;;;;19.26;48.62;102610.34;4924480;29;19952;-86
2023/05/31 08:24:12;;;;;;;;;;;;;;;19.77;47.65;102612.63;4924184;29;19945;-88
2023/05/31 08:26:38;;;;;;;;;;;;;;;19.75;47.57;102606.69;4909677;29;19918;-87
2023/05/31 08:29:03;;;;;;;;;;;;;;;19.81;46.66;102609.06;4922953;29;20006;-88
2023/05/31 08:31:29;;;;;;;;;;;;;;;20.07;45.50;102606.09;4923388;29;19919;-88
2023/05/31 08:33:55;;;;;;;;;;;;;;;20.20;46.29;102599.97;4922592;29;19989;-89
2023/05/31 08:36:21;;;;;;;;;;;;;;;20.27;43.78;102595.00;4925727;29;20038;-86
2023/05/31 08:38:46;;;;;;;;;;;;;;;20.31;46.03;102596.00;4920919;29;19958;-88
2023/05/31 08:41:12;;;;;;;;;;;;;;;20.53;44.70;102597.44;4913887;29;19919;-87
2023/05/31 08:43:39;;;;;;;;;;;;;;;20.52;43.03;102587.63;4930873;29;20287;-87
2023/05/31 08:46:07;;;;;;;;;;;;;;;20.52;45.01;102595.78;4927748;29;19970;-87
2023/05/31 08:48:35;;;;;;;;;;;;;;;20.65;41.66;102597.78;4944362;29;19984;-88
2023/05/31 08:51:02;;;;;;;;;;;;;;;20.81;42.30;102593.78;4908379;29;19922;-87
2023/05/31 08:53:28;;;;;;;;;;;;;;;21.12;43.34;102591.38;4930806;29;20003;-89
2023/05/31 08:55:54;;;;;;;;;;;;;;;21.55;44.60;102585.84;4921380;29;20004;-85
2023/05/31 08:58:20;;;;;;;;;;;;;;;21.65;42.84;102598.47;4920990;29;20025;-91
2023/05/31 09:00:46;;;;;;;;;;;;;;;21.30;42.96;102591.72;4904820;29;19918;-87
2023/05/31 09:03:12;;;;;;;;;;;;;;;20.90;42.49;102581.09;4917302;29;20011;-88
2023/05/31 09:05:38;;;;;;;;;;;;;;;21.27;40.64;102584.91;4922973;29;20807;-89
2023/05/31 09:08:03;;;;;;;;;;;;;;;21.20;39.93;102568.09;4933587;29;20013;-86
2023/05/31 09:10:29;;;;;;;;;;;;;;;21.44;40.28;102584.38;4929131;29;19929;-88
2023/05/31 09:12:55;;;;;;;;;;;;;;;21.30;42.13;102580.81;4921506;29;19984;-86
2023/05/31 09:15:24;;;;;;;;;;;;;;;21.08;41.22;102571.31;4934118;29;19936;-87
2023/05/31 09:17:50;;;;;;;;;;;;;;;21.06;41.63;102572.69;4923641;29;19973;-89
2023/05/31 09:20:17;;;;;;;;;;;;;;;21.29;40.57;102571.81;4912492;29;19978;-86
2023/05/31 09:22:46;;;;;;;;;;;;;;;21.57;42.97;102566.44;4908020;29;19956;-89
2023/05/31 09:25:12;;;;;;;;;;;;;;;21.82;41.06;102562.44;4931012;29;19950;-87
2023/05/31 09:27:38;;;;;;;;;;;;;;;21.79;41.71;102564.66;4921939;29;20447;-87
2023/05/31 09:30:05;;;;;;;;;;;;;;;21.85;40.75;102559.91;4912016;29;19944;-88
2023/05/31 09:32:31;;;;;;;;;;;;;;;21.72;41.07;102557.97;4918289;29;19998;-88
2023/05/31 09:35:11;;;;;;;;;;;;;;;21.73;41.35;102548.69;4927475;29;19988;-87
2023/05/31 09:37:47;;;;;;;;;;;;;;;21.89;39.62;102547.31;4931225;29;20348;-87
2023/05/31 09:40:14;;;;;;;;;;;;;;;22.14;40.43;102547.91;4927241;29;19935;-89
2023/05/31 09:42:49;;;;;;;;;;;;;;;21.99;41.30;102549.00;4912613;29;19956;-89
2023/05/31 09:45:15;;;;;;;;;;;;;;;22.14;39.74;102542.47;4911927;29;19931;-85
2023/05/31 09:47:41;;;;;;;;;;;;;;;21.91;40.26;102544.25;4918960;29;20378;-90
2023/05/31 09:50:11;;;;;;;;;;;;;;;22.20;41.09;102549.44;4918938;29;19926;-85
2023/05/31 09:52:40;;;;;;;;;;;;;;;22.39;40.35;102550.13;4949306;29;20062;-88
2023/05/31 09:55:08;;;;;;;;;;;;;;;22.58;42.71;102542.59;4925294;29;20347;-87
2023/05/31 09:57:43;;;;;;;;;;;;;;;22.02;40.72;102534.78;4928479;29;19922;-87
2023/05/31 10:00:17;;;;;;;;;;;;;;;21.96;42.69;102536.78;4909988;29;19919;-87
2023/05/31 10:02:53;;;;;;;;;;;;;;;21.71;42.15;102538.09;4931546;29;19919;-86
2023/05/31 10:05:20;;;;;;;;;;;;;;;21.87;42.25;102538.59;4938024;29;19923;-87
2023/05/31 10:07:47;;;;;;;;;;;;;;;22.27;43.44;102530.72;4927638;29;20404;-85
2023/05/31 10:10:13;;;;;;;;;;;;;;;22.24;40.78;102536.81;4923389;29;19931;-86
2023/05/31 10:12:50;;;;;;;;;;;;;;;22.04;41.27;102530.63;4907091;29;19959;-87
2023/05/31 10:15:17;;;;;;;;;;;;;;;22.74;41.43;102528.59;4906912;29;19936;-85
2023/05/31 10:17:44;;;;;;;;;;;;;;;23.12;41.11;102537.28;4922779;29;20753;-88
2023/05/31 10:20:12;;;;;;;;;;;;;;;22.63;41.28;102532.69;4908438;29;19933;-88
2023/05/31 10:22:39;;;;;;;;;;;;;;;22.02;40.98;102523.88;4925806;29;19951;-86
2023/05/31 10:25:20;;;;;;;;;;;;;;;22.46;42.81;102534.13;4917221;29;20263;-85
2023/05/31 10:27:50;;;;;;;;;;;;;;;22.90;41.25;102527.16;4929675;29;19923;-87
2023/05/31 10:30:25;;;;;;;;;;;;;;;22.91;39.64;102536.16;4947639;29;19926;-86
2023/05/31 10:32:57;;;;;;;;;;;;;;;23.14;43.84;102541.28;4922802;29;19926;-87
2023/05/31 10:35:24;;;;;;;;;;;;;;;22.86;40.91;102534.34;4922794;29;20032;-87
2023/05/31 10:37:54;;;;;;;;;;;;;;;22.98;41.25;102531.06;4905836;29;19926;-87
2023/05/31 10:40:23;;;;;;;;;;;;;;;22.98;39.66;102526.41;4915986;29;20385;-87
2023/05/31 10:42:58;;;;;;;;;;;;;;;23.20;39.82;102524.78;4907893;29;19930;-88
2023/05/31 10:45:37;;;;;;;;;;;;;;;22.76;40.67;102520.88;4926369;29;19923;-86
2023/05/31 10:48:26;;;;;;;;;;;;;;;23.16;39.32;102516.38;4915597;29;19922;-86
2023/05/31 10:50:56;;;;;;;;;;;;;;;22.92;39.03;102508.53;4893336;29;20319;-88
2023/05/31 10:53:22;;;;;;;;;;;;;;;23.07;38.41;102505.41;4907121;29;19927;-86
2023/05/31 10:55:49;;;;;;;;;;;;;;;23.24;37.18;102501.97;4906786;29;19919;-87
2023/05/31 10:58:38;;;;;;;;;;;;;;;22.29;37.03;102496.56;4892172;29;19967;-88
2023/05/31 11:01:05;;;;;;;;;;;;;;;22.65;37.65;102503.13;4936987;29;19955;-87
2023/05/31 11:03:32;;;;;;;;;;;;;;;23.38;38.62;102488.22;4928717;29;19931;-89
2023/05/31 11:05:59;;;;;;;;;;;;;;;23.92;40.43;102487.00;4917107;29;19967;-87
2023/05/31 11:08:28;;;;;;;;;;;;;;;24.37;34.54;102481.28;4919773;29;20426;-85
2023/05/31 11:11:15;;;;;;;;;;;;;;;23.48;35.02;102487.94;4933509;29;20008;-88
2023/05/31 11:14:00;;;;;;;;;;;;;;;23.91;36.95;102473.63;4927640;29;19941;-86
2023/05/31 11:16:32;;;;;;;;;;;;;;;24.30;36.25;102474.66;4932261;29;19942;-86
2023/05/31 11:19:05;;;;;;;;;;;;;;;24.17;36.43;102488.16;4917176;29;19985;-86
2023/05/31 11:21:47;;;;;;;;;;;;;;;24.36;38.75;102484.34;4906614;29;20309;-86
2023/05/31 11:24:29;;;;;;;;;;;;;;;24.32;34.56;102478.72;4929010;29;19962;-87
2023/05/31 11:27:01;;;;;;;;;;;;;;;24.16;33.31;102464.66;4946919;29;19993;-90
2023/05/31 11:29:48;;;;;;;;;;;;;;;24.33;34.35;102469.38;4916807;29;19934;-87
2023/05/31 11:32:15;;;;;;;;;;;;;;;24.17;33.54;102474.47;4908173;29;19926;-86
2023/05/31 11:34:50;;;;;;;;;;;;;;;23.62;34.90;102460.50;4916620;29;19957;-88
2023/05/31 11:37:16;;;;;;;;;;;;;;;24.42;35.73;102453.75;4913021;29;19976;-87
2023/05/31 11:39:46;;;;;;;;;;;;;;;25.24;40.29;102457.34;4906587;29;19946;-90
2023/05/31 11:42:13;;;;;;;;;;;;;;;24.45;34.56;102455.03;4946142;29;20453;-88
2023/05/31 11:44:45;;;;;;;;;;;;;;;24.73;37.44;102461.81;4940969;29;19953;-88
2023/05/31 11:47:16;;;;;;;;;;;;;;;24.75;38.15;102459.53;4918204;29;20054;-89
2023/05/31 11:49:43;;;;;;;;;;;;;;;24.55;33.70;102453.91;4940548;29;19935;-88
2023/05/31 11:52:09;;;;;;;;;;;;;;;23.52;36.26;102453.38;4929455;29;20004;-90
2023/05/31 11:54:35;;;;;;;;;;;;;;;23.56;36.08;102448.06;4923390;29;19986;-88
2023/05/31 11:57:06;;;;;;;;;;;;;;;23.63;36.80;102442.97;4914563;29;19918;-86
2023/05/31 11:59:33;;;;;;;;;;;;;;;24.37;37.47;102448.44;4907390;29;19919;-87
2023/05/31 12:02:00;;;;;;;;;;;;;;;24.05;36.62;102441.47;4891526;29;20491;-89
2023/05/31 12:04:36;;;;;;;;;;;;;;;24.58;37.46;102437.63;4927003;29;19926;-87
2023/05/31 12:07:05;;;;;;;;;;;;;;;24.94;39.01;102433.72;4937056;29;20058;-90
2023/05/31 12:09:32;;;;;;;;;;;;;;;24.62;36.41;102441.34;4921167;29;19918;-89
2023/05/31 12:11:59;;;;;;;;;;;;;;;24.05;37.32;102436.00;4901474;29;20005;-86
2023/05/31 12:14:28;;;;;;;;;;;;;;;24.83;36.63;102425.03;4929044;29;19919;-87
2023/05/31 12:16:54;;;;;;;;;;;;;;;24.82;35.84;102431.66;4935744;29;19939;-90
2023/05/31 12:19:19;;;;;;;;;;;;;;;24.97;34.68;102420.16;4915887;29;19935;-89
2023/05/31 12:21:45;;;;;;;;;;;;;;;24.80;35.85;102422.16;4927311;29;19955;-89
2023/05/31 12:24:15;;;;;;;;;;;;;;;25.11;36.77;102422.72;4905819;29;19961;-89
2023/05/31 12:26:44;;;;;;;;;;;;;;;25.07;35.99;102419.03;4916651;29;19965;-85
2023/05/31 12:29:14;;;;;;;;;;;;;;;25.32;36.38;102412.63;4930028;29;19991;-88
2023/05/31 12:31:40;;;;;;;;;;;;;;;25.64;34.99;102407.63;4924275;29;19979;-87
2023/05/31 12:34:05;;;;;;;;;;;;;;;25.13;38.27;102408.69;4939258;29;20025;-88
2023/05/31 12:36:41;;;;;;;;;;;;;;;25.68;38.22;102399.56;4946207;29;19919;-88
2023/05/31 12:39:21;;;;;;;;;;;;;;;25.57;35.93;102393.63;4905703;29;19922;-90
2023/05/31 12:41:47;;;;;;;;;;;;;;;24.85;37.76;102397.28;4927999;29;20459;-89
2023/05/31 12:44:19;;;;;;;;;;;;;;;25.76;40.77;102394.03;4924392;29;19981;-88
2023/05/31 12:46:45;;;;;;;;;;;;;;;26.39;39.42;102389.34;4935336;29;19919;-90